TimeCST,TemperatureF,Dew PointF,Humidity,Sea Level PressureIn,VisibilityMPH,Wind Direction,Wind SpeedMPH,Gust SpeedMPH,PrecipitationIn,Events,Conditions,WindDirDegrees,DateUTC
12:13 AM,55.4,44.6,67,29.67,10.0,SSW,19.6,24.2,N/A,,Clear,200,2012-11-22 06:13:00
12:32 AM,57.2,44.6,63,29.66,10.0,SSW,19.6,-,N/A,,Clear,200,2012-11-22 06:32:00
12:53 AM,55.4,44.6,67,29.66,10.0,SSW,20.7,25.3,N/A,,Clear,200,2012-11-22 06:53:00
1:13 AM,55.4,44.6,67,29.65,10.0,SSW,20.7,26.5,N/A,,Clear,200,2012-11-22 07:13:00
1:32 AM,55.4,44.6,67,29.64,10.0,SSW,17.3,23.0,N/A,,Clear,200,2012-11-22 07:32:00
1:53 AM,55.4,44.6,67,29.64,10.0,South,17.3,-,N/A,,Clear,190,2012-11-22 07:53:00
2:13 AM,55.4,44.6,67,29.64,10.0,South,15.0,21.9,N/A,,Clear,190,2012-11-22 08:13:00
2:32 AM,53.6,44.6,72,29.63,10.0,South,13.8,20.7,N/A,,Clear,190,2012-11-22 08:32:00
2:53 AM,53.6,44.6,72,29.63,10.0,SSW,16.1,-,N/A,,Clear,200,2012-11-22 08:53:00
3:13 AM,53.6,44.6,72,29.63,10.0,SSW,12.7,18.4,N/A,,Clear,200,2012-11-22 09:13:00
3:32 AM,53.6,44.6,72,29.63,10.0,SSW,10.4,18.4,N/A,,Clear,210,2012-11-22 09:32:00
3:53 AM,53.6,42.8,67,29.63,10.0,SSW,10.4,-,N/A,,Clear,200,2012-11-22 09:53:00
4:13 AM,51.8,42.8,71,29.63,10.0,SSW,9.2,-,N/A,,Clear,200,2012-11-22 10:13:00
4:32 AM,51.8,42.8,71,29.63,10.0,SSW,10.4,-,N/A,,Clear,200,2012-11-22 10:32:00
4:53 AM,51.8,42.8,71,29.62,10.0,SSW,10.4,-,N/A,,Clear,200,2012-11-22 10:53:00
5:13 AM,51.8,42.8,71,29.62,10.0,SSW,10.4,-,N/A,,Clear,200,2012-11-22 11:13:00
5:32 AM,50.0,42.8,76,29.63,10.0,SSW,11.5,-,N/A,,Clear,210,2012-11-22 11:32:00
5:53 AM,50.0,42.8,76,29.63,10.0,SSW,13.8,19.6,N/A,,Clear,200,2012-11-22 11:53:00
6:13 AM,48.2,42.8,82,29.63,10.0,SSW,15.0,-,N/A,,Clear,210,2012-11-22 12:13:00
6:32 AM,48.2,42.8,82,29.63,10.0,SSW,13.8,-,N/A,,Clear,210,2012-11-22 12:32:00
6:53 AM,46.4,41.0,81,29.64,10.0,WSW,8.1,-,N/A,,Clear,240,2012-11-22 12:53:00
7:13 AM,46.4,42.8,87,29.64,10.0,SW,10.4,-,N/A,,Clear,220,2012-11-22 13:13:00
7:53 AM,46.4,39.2,76,29.66,10.0,WSW,6.9,-,N/A,,Clear,240,2012-11-22 13:53:00
8:13 AM,46.4,39.2,76,29.66,10.0,WSW,6.9,-,N/A,,Clear,250,2012-11-22 14:13:00
8:32 AM,46.4,39.2,76,29.66,10.0,West,4.6,-,N/A,,Clear,260,2012-11-22 14:32:00
8:53 AM,48.2,37.4,66,29.67,10.0,West,8.1,-,N/A,,Clear,270,2012-11-22 14:53:00
9:13 AM,50.0,35.6,58,29.69,10.0,WNW,17.3,21.9,N/A,,Clear,300,2012-11-22 15:13:00
9:53 AM,48.2,35.6,62,29.70,10.0,NW,18.4,23.0,N/A,,Clear,320,2012-11-22 15:53:00
10:13 AM,48.2,37.4,66,29.72,10.0,NW,20.7,25.3,N/A,,Clear,310,2012-11-22 16:13:00
10:32 AM,46.4,37.4,71,29.73,10.0,NW,18.4,23.0,N/A,,Clear,310,2012-11-22 16:32:00
10:53 AM,48.2,37.4,66,29.75,10.0,NW,21.9,27.6,N/A,,Clear,310,2012-11-22 16:53:00
11:13 AM,46.4,37.4,71,29.75,10.0,NW,19.6,29.9,N/A,,Clear,310,2012-11-22 17:13:00
11:53 AM,46.4,35.6,66,29.77,10.0,NW,23.0,31.1,N/A,,Clear,310,2012-11-22 17:53:00
12:12 PM,44.6,35.6,71,29.79,10.0,WNW,27.6,32.2,N/A,,Mostly Cloudy,290,2012-11-22 18:12:00
12:33 PM,44.6,33.8,66,29.79,10.0,WNW,24.2,35.7,N/A,,Overcast,300,2012-11-22 18:33:00
12:52 PM,44.6,33.8,66,29.81,10.0,WNW,27.6,36.8,N/A,,Overcast,300,2012-11-22 18:52:00
1:12 PM,44.6,33.8,66,29.82,10.0,WNW,29.9,39.1,N/A,,Overcast,300,2012-11-22 19:12:00
1:33 PM,44.6,33.8,66,29.83,10.0,NW,28.8,35.7,N/A,,Overcast,310,2012-11-22 19:33:00
1:52 PM,42.8,33.8,70,29.84,10.0,WNW,25.3,33.4,N/A,,Overcast,300,2012-11-22 19:52:00
2:12 PM,42.8,33.8,70,29.85,10.0,WNW,21.9,34.5,N/A,,Overcast,300,2012-11-22 20:12:00
2:33 PM,39.2,33.8,81,29.88,10.0,WNW,26.5,34.5,N/A,Rain,Light Rain,300,2012-11-22 20:33:00
2:52 PM,37.4,35.6,93,29.90,10.0,WNW,25.3,33.4,N/A,Rain,Rain,290,2012-11-22 20:52:00
3:12 PM,37.4,33.8,87,29.91,10.0,WNW,18.4,32.2,N/A,Rain,Light Rain,300,2012-11-22 21:12:00
3:33 PM,37.4,33.8,87,29.92,10.0,WNW,21.9,31.1,N/A,,Overcast,300,2012-11-22 21:33:00
3:52 PM,39.2,33.8,81,29.92,10.0,WNW,19.6,29.9,N/A,,Overcast,300,2012-11-22 21:52:00
4:12 PM,39.2,33.8,81,29.94,10.0,WNW,19.6,24.2,N/A,,Overcast,300,2012-11-22 22:12:00
4:32 PM,39.2,33.8,81,29.94,10.0,WNW,18.4,24.2,N/A,,Overcast,290,2012-11-22 22:32:00
4:52 PM,39.2,33.8,81,29.96,10.0,WNW,21.9,36.8,N/A,,Overcast,300,2012-11-22 22:52:00
5:13 PM,39.2,32.0,75,29.97,10.0,WNW,29.9,35.7,N/A,,Overcast,290,2012-11-22 23:13:00
5:32 PM,39.2,30.2,70,29.97,10.0,WNW,25.3,36.8,N/A,,Overcast,300,2012-11-22 23:32:00
5:52 PM,39.2,30.2,70,29.98,10.0,WNW,21.9,27.6,N/A,,Overcast,290,2012-11-22 23:52:00
6:13 PM,39.2,30.2,70,29.99,10.0,WNW,24.2,31.1,N/A,,Overcast,300,2012-11-23 00:13:00
6:32 PM,37.4,28.4,70,30.00,10.0,WNW,29.9,42.6,N/A,,Overcast,290,2012-11-23 00:32:00
6:52 PM,37.4,28.4,70,30.01,10.0,WNW,28.8,41.4,N/A,,Overcast,300,2012-11-23 00:52:00
8:13 PM,33.8,24.8,70,30.05,10.0,WNW,27.6,36.8,N/A,,Overcast,300,2012-11-23 02:13:00
8:32 PM,33.8,23.0,65,30.05,10.0,WNW,24.2,35.7,N/A,,Overcast,290,2012-11-23 02:32:00
8:53 PM,32.0,21.2,64,30.04,10.0,WNW,21.9,32.2,N/A,,Mostly Cloudy,300,2012-11-23 02:53:00
9:13 PM,30.2,21.2,69,30.04,10.0,WNW,20.7,33.4,N/A,,Scattered Clouds,300,2012-11-23 03:13:00
9:32 PM,30.2,21.2,69,30.05,10.0,WNW,20.7,29.9,N/A,,Clear,300,2012-11-23 03:32:00
9:53 PM,30.2,21.2,69,30.05,10.0,WNW,24.2,33.4,N/A,,Clear,300,2012-11-23 03:53:00
10:13 PM,28.4,21.2,74,30.06,10.0,WNW,25.3,33.4,N/A,,Scattered Clouds,300,2012-11-23 04:13:00
10:32 PM,28.4,21.2,74,30.07,10.0,WNW,24.2,35.7,N/A,,Mostly Cloudy,300,2012-11-23 04:32:00
10:53 PM,28.4,21.2,74,30.08,10.0,WNW,32.2,40.3,N/A,,Overcast,300,2012-11-23 04:53:00
11:12 PM,28.4,21.2,74,30.09,10.0,WNW,29.9,38.0,N/A,,Overcast,300,2012-11-23 05:12:00
11:33 PM,28.4,21.2,74,30.10,10.0,WNW,23.0,38.0,N/A,,Overcast,300,2012-11-23 05:33:00
11:53 PM,26.6,19.4,74,30.11,10.0,NW,27.6,35.7,N/A,,Overcast,310,2012-11-23 05:53:00